Electa — ICBQ — position and weather

sailwx.info

Track history (hours):
 
Tides and Currents Weather Stations Pressure Air Temp Water Temp Dewpoint Dewpoint Depression Visibility Wind Speed Wind Dir Waves Ship Positions

Electa

Last reported at 2018-Jun-15 22:33 UTC. Time now 2018-Jun-23 19:11 UTC.
Position N 06°19' E 003°13'.

Length 183 m; draft 11.3 m.

Type: Tanker. MMSI: 247284500.

Date/timePositionNaut miles runAvg speedWind from/ knotsBaromVisibWave heightAir tempDewpointWater temp
2018-Jun-15 22:33N 06°19' E 003°13'  
2018-Jun-07 10:14N 27°33' W 015°16'913.2
2018-Jun-07 09:33N 27°42' W 015°15'513.2
2018-Jun-07 09:11N 27°47' W 015°15'213.4
2018-Jun-07 09:01N 27°49' W 015°15'713.6
2018-Jun-07 08:31N 27°56' W 015°15'713.7
2018-Jun-07 08:01N 28°02' W 015°16'612.3
2018-Jun-07 07:30N 28°08' W 015°20'0 0.3
2018-Jun-07 07:00N 28°08' W 015°19'2 3.8
2018-Jun-07 06:30N 28°10' W 015°18'5 9.7
2018-Jun-07 06:01N 28°13' W 015°15'612.7
2018-Jun-07 05:31N 28°18' W 015°10'713.7
2018-Jun-07 05:01N 28°24' W 015°05'713.7
2018-Jun-07 04:30N 28°29' W 015°00'713.6
2018-Jun-07 04:00N 28°34' W 014°56'713.5
2018-Jun-07 03:30N 28°39' W 014°50'713.6
2018-Jun-07 02:57N 28°47' W 014°49'613.6
2018-Jun-07 02:29N 28°53' W 014°47'913.4
2018-Jun-07 01:51N 29°01' W 014°45'3713.7
2018-Jun-06 23:10N 29°37' W 014°35'2413.4
2018-Jun-06 21:22N 30°01' W 014°29'  
Track history (hours):
 
Tides and Currents Weather Stations Pressure Air Temp Water Temp Dewpoint Dewpoint Depression Visibility Wind Speed Wind Dir Waves Ship Positions

Electa

Last reported at 2018-Jun-15 22:33 UTC. Time now 2018-Jun-23 19:11 UTC.
Position N 06°19' E 003°13'.

Length 183 m; draft 11.3 m.

Type: Tanker. MMSI: 247284500.

Date/timePositionNaut miles runAvg speedWind from/ knotsBaromVisibWave heightAir tempDewpointWater temp
2018-Jun-15 22:33N 06°19' E 003°13'  
2018-Jun-07 10:14N 27°33' W 015°16'913.2
2018-Jun-07 09:33N 27°42' W 015°15'513.2
2018-Jun-07 09:11N 27°47' W 015°15'213.4
2018-Jun-07 09:01N 27°49' W 015°15'713.6
2018-Jun-07 08:31N 27°56' W 015°15'713.7
2018-Jun-07 08:01N 28°02' W 015°16'612.3
2018-Jun-07 07:30N 28°08' W 015°20'0 0.3
2018-Jun-07 07:00N 28°08' W 015°19'2 3.8
2018-Jun-07 06:30N 28°10' W 015°18'5 9.7
2018-Jun-07 06:01N 28°13' W 015°15'612.7
2018-Jun-07 05:31N 28°18' W 015°10'713.7
2018-Jun-07 05:01N 28°24' W 015°05'713.7
2018-Jun-07 04:30N 28°29' W 015°00'713.6
2018-Jun-07 04:00N 28°34' W 014°56'713.5
2018-Jun-07 03:30N 28°39' W 014°50'713.6
2018-Jun-07 02:57N 28°47' W 014°49'613.6
2018-Jun-07 02:29N 28°53' W 014°47'913.4
2018-Jun-07 01:51N 29°01' W 014°45'3713.7
2018-Jun-06 23:10N 29°37' W 014°35'2413.4
2018-Jun-06 21:22N 30°01' W 014°29'  

Dump ship's entire track history